createdAt,value
2019-01-03T00:00:19.450Z,0.00
2019-01-03T00:01:19.439Z,0.00
2019-01-03T00:02:19.431Z,0.00
2019-01-03T00:03:19.419Z,0.00
2019-01-03T00:04:19.412Z,0.00
2019-01-03T00:05:19.400Z,0.00
2019-01-03T00:06:19.394Z,0.00
2019-01-03T00:07:19.381Z,0.00
2019-01-03T00:08:19.374Z,0.00
2019-01-03T00:09:19.364Z,0.00
2019-01-03T00:10:19.356Z,0.00
2019-01-03T00:11:19.343Z,0.00
2019-01-03T00:12:19.336Z,0.00
2019-01-03T00:13:19.326Z,0.00
2019-01-03T00:14:19.319Z,0.00
2019-01-03T00:15:19.306Z,0.00
2019-01-03T00:16:19.299Z,0.00
2019-01-03T00:17:19.587Z,0.00
2019-01-03T00:18:19.281Z,0.00
2019-01-03T00:19:19.269Z,0.00
2019-01-03T00:20:19.262Z,0.00
2019-01-03T00:21:19.254Z,0.00
2019-01-03T00:22:19.263Z,0.00
2019-01-03T00:23:19.231Z,0.00
2019-01-03T00:24:19.225Z,0.00
2019-01-03T00:25:19.212Z,0.00
2019-01-03T00:26:19.207Z,0.00
2019-01-03T00:27:19.193Z,0.00
2019-01-03T00:28:19.211Z,0.00
2019-01-03T00:29:19.175Z,0.00
2019-01-03T00:30:19.168Z,0.00
2019-01-03T00:31:19.156Z,0.00
2019-01-03T00:32:19.150Z,0.00
2019-01-03T00:33:19.138Z,0.00
2019-01-03T00:34:19.139Z,0.00
2019-01-03T00:35:19.119Z,0.00
2019-01-03T00:36:19.111Z,0.00
2019-01-03T00:37:19.103Z,0.00
2019-01-03T00:38:19.106Z,0.00
2019-01-03T00:39:19.080Z,0.00
2019-01-03T00:40:19.083Z,0.00
2019-01-03T00:41:19.061Z,0.00
2019-01-03T00:42:19.056Z,0.00
2019-01-03T00:43:19.042Z,0.00
2019-01-03T00:44:19.035Z,0.00
2019-01-03T00:45:19.027Z,0.00
2019-01-03T00:46:19.017Z,0.00
2019-01-03T00:47:19.004Z,0.00
2019-01-03T00:48:18.998Z,0.00
2019-01-03T00:49:18.987Z,0.00
2019-01-03T00:50:18.979Z,0.00
2019-01-03T00:51:18.966Z,0.00
2019-01-03T00:52:18.961Z,0.00
2019-01-03T00:53:18.950Z,0.00
2019-01-03T00:54:18.943Z,0.00
2019-01-03T00:55:18.928Z,0.00
2019-01-03T00:56:18.922Z,0.00
2019-01-03T00:57:18.911Z,0.00
2019-01-03T00:58:18.903Z,0.00
2019-01-03T00:59:18.891Z,0.00
2019-01-03T01:00:18.885Z,0.00
2019-01-03T01:01:18.873Z,0.00
2019-01-03T01:02:18.866Z,0.00
2019-01-03T01:03:18.853Z,0.00
2019-01-03T01:04:18.849Z,0.00
2019-01-03T01:05:18.834Z,0.00
2019-01-03T01:06:18.829Z,0.00
2019-01-03T01:07:18.815Z,0.00
2019-01-03T01:08:18.812Z,0.00
2019-01-03T01:09:18.796Z,0.00
2019-01-03T01:10:18.790Z,0.00
2019-01-03T01:11:18.779Z,0.00
2019-01-03T01:12:18.777Z,0.00
2019-01-03T01:13:18.759Z,0.00
2019-01-03T01:14:18.752Z,0.00
2019-01-03T01:15:18.739Z,0.00
2019-01-03T01:16:18.746Z,0.00
2019-01-03T01:17:18.722Z,0.00
2019-01-03T01:18:18.715Z,0.00
2019-01-03T01:19:18.702Z,0.00
2019-01-03T01:20:18.695Z,0.00
2019-01-03T01:21:18.685Z,0.00
2019-01-03T01:22:18.678Z,0.00
2019-01-03T01:23:18.668Z,0.00
2019-01-03T01:24:18.660Z,0.00
2019-01-03T01:25:18.649Z,0.00
2019-01-03T01:26:18.640Z,0.00
2019-01-03T01:27:18.628Z,0.00
2019-01-03T01:28:18.621Z,0.00
2019-01-03T01:29:18.610Z,0.00
2019-01-03T01:30:18.603Z,0.00
2019-01-03T01:31:18.592Z,0.00
2019-01-03T01:32:18.584Z,0.00
2019-01-03T01:33:18.573Z,0.00
2019-01-03T01:34:18.566Z,0.00
2019-01-03T01:35:18.554Z,0.00
2019-01-03T01:36:18.550Z,0.00
2019-01-03T01:37:18.535Z,0.00
2019-01-03T01:38:18.529Z,0.00
2019-01-03T01:39:18.519Z,0.00
2019-01-03T01:40:18.517Z,0.00
2019-01-03T01:41:18.498Z,0.00
2019-01-03T01:42:18.492Z,0.00
2019-01-03T01:43:18.479Z,0.00
2019-01-03T01:44:18.472Z,0.00
2019-01-03T01:45:18.460Z,0.00
2019-01-03T01:46:18.453Z,0.00
2019-01-03T01:47:18.441Z,0.00
2019-01-03T01:48:18.443Z,0.00
2019-01-03T01:49:18.426Z,0.00
2019-01-03T01:50:18.416Z,0.00
2019-01-03T01:51:18.426Z,0.00
2019-01-03T01:52:18.398Z,0.00
2019-01-03T01:53:18.385Z,0.00
2019-01-03T01:54:18.380Z,0.00
2019-01-03T01:55:18.367Z,0.00
2019-01-03T01:56:18.360Z,0.00
2019-01-03T01:57:18.348Z,0.00
2019-01-03T01:58:18.342Z,0.00
2019-01-03T01:59:18.330Z,0.00
2019-01-03T02:00:18.323Z,0.00
2019-01-03T02:01:18.312Z,0.00
2019-01-03T02:02:18.305Z,0.00
2019-01-03T02:03:18.293Z,0.00
2019-01-03T02:04:18.286Z,0.00
2019-01-03T02:05:18.275Z,0.00
2019-01-03T02:06:18.269Z,0.00
2019-01-03T02:07:18.255Z,0.00
2019-01-03T02:08:18.250Z,0.00
2019-01-03T02:09:18.247Z,0.00
2019-01-03T02:10:18.498Z,0.00
2019-01-03T02:11:18.220Z,0.00
2019-01-03T02:12:18.212Z,0.00
2019-01-03T02:13:18.202Z,0.00
2019-01-03T02:14:18.199Z,0.00
2019-01-03T02:15:18.187Z,0.00
2019-01-03T02:16:18.191Z,0.00
2019-01-03T02:17:18.164Z,0.00
2019-01-03T02:18:18.158Z,0.00
2019-01-03T02:19:18.148Z,0.00
2019-01-03T02:20:18.139Z,0.00
2019-01-03T02:21:18.128Z,0.00
2019-01-03T02:22:18.127Z,0.00
2019-01-03T02:23:18.109Z,0.00
2019-01-03T02:24:18.114Z,0.00
2019-01-03T02:25:18.095Z,0.00
2019-01-03T02:26:18.084Z,0.00
2019-01-03T02:27:18.073Z,0.00
2019-01-03T02:28:18.066Z,0.00
2019-01-03T02:29:18.058Z,0.00
2019-01-03T02:30:18.050Z,0.00
2019-01-03T02:31:18.038Z,0.00
2019-01-03T02:32:18.030Z,0.00
2019-01-03T02:33:18.018Z,0.00
2019-01-03T02:34:18.013Z,0.00
2019-01-03T02:35:18.001Z,0.00
2019-01-03T02:36:17.993Z,0.00
2019-01-03T02:37:17.983Z,0.00
2019-01-03T02:38:17.989Z,0.00
2019-01-03T02:39:17.964Z,0.00
2019-01-03T02:40:17.958Z,0.00
2019-01-03T02:41:17.956Z,0.00
2019-01-03T02:42:17.940Z,0.00
2019-01-03T02:43:17.933Z,0.00
2019-01-03T02:44:17.924Z,0.00
2019-01-03T02:45:17.922Z,0.00
2019-01-03T02:46:17.905Z,0.00
2019-01-03T02:47:17.894Z,0.00
2019-01-03T02:48:17.886Z,0.00
2019-01-03T02:49:17.874Z,0.00
2019-01-03T02:50:17.868Z,0.00
2019-01-03T02:51:17.856Z,0.00
2019-01-03T02:52:17.850Z,0.00
2019-01-03T02:53:17.839Z,0.00
2019-01-03T02:54:17.834Z,0.00
2019-01-03T02:55:17.820Z,0.00
2019-01-03T02:56:17.817Z,0.00
2019-01-03T02:57:17.805Z,0.00
2019-01-03T02:58:17.803Z,0.00
2019-01-03T02:59:17.784Z,0.00
2019-01-03T03:00:17.778Z,0.00
2019-01-03T03:01:17.767Z,0.00
2019-01-03T03:02:17.760Z,0.00
2019-01-03T03:03:17.749Z,0.00
2019-01-03T03:04:17.742Z,0.00
2019-01-03T03:05:17.732Z,0.00
2019-01-03T03:06:17.726Z,0.00
2019-01-03T03:07:17.713Z,0.00
2019-01-03T03:08:17.707Z,0.00
2019-01-03T03:09:17.698Z,0.00
2019-01-03T03:10:17.690Z,0.00
2019-01-03T03:11:17.692Z,0.00
2019-01-03T03:12:17.671Z,0.00
2019-01-03T03:13:17.661Z,0.00
2019-01-03T03:14:17.654Z,0.00
2019-01-03T03:15:17.641Z,0.00
2019-01-03T03:16:17.636Z,0.00
2019-01-03T03:17:17.624Z,0.00
2019-01-03T03:18:17.619Z,0.00
2019-01-03T03:19:17.609Z,0.00
2019-01-03T03:20:17.599Z,0.00
2019-01-03T03:21:17.588Z,0.00
2019-01-03T03:22:17.582Z,0.00
2019-01-03T03:23:17.589Z,0.00
2019-01-03T03:24:17.563Z,0.00
2019-01-03T03:25:17.553Z,0.00
2019-01-03T03:26:17.545Z,0.00
2019-01-03T03:27:17.534Z,0.00
2019-01-03T03:28:17.526Z,0.00
2019-01-03T03:29:17.516Z,0.00
2019-01-03T03:30:17.553Z,0.00
2019-01-03T03:31:17.498Z,0.00
2019-01-03T03:32:17.493Z,0.00
2019-01-03T03:33:17.493Z,0.00
2019-01-03T03:34:17.473Z,0.00
2019-01-03T03:35:17.461Z,0.00
2019-01-03T03:36:17.455Z,0.00
2019-01-03T03:37:17.448Z,0.00
2019-01-03T03:38:17.436Z,0.00
2019-01-03T03:39:17.427Z,0.00
2019-01-03T03:40:17.419Z,0.00
2019-01-03T03:41:17.407Z,0.00
2019-01-03T03:42:17.403Z,0.00
2019-01-03T03:43:17.388Z,0.00
2019-01-03T03:44:17.384Z,0.00
2019-01-03T03:45:17.371Z,0.00
2019-01-03T03:46:17.364Z,0.00
2019-01-03T03:47:17.353Z,0.00
2019-01-03T03:48:17.358Z,0.00
2019-01-03T03:49:17.348Z,0.00
2019-01-03T03:50:17.338Z,0.00
2019-01-03T03:51:17.316Z,0.00
2019-01-03T03:52:17.317Z,0.00
2019-01-03T03:53:17.301Z,0.00
2019-01-03T03:54:17.300Z,0.00
2019-01-03T03:55:17.283Z,0.00
2019-01-03T03:56:17.273Z,0.00
2019-01-03T03:57:17.269Z,0.00
2019-01-03T03:58:17.254Z,0.00
2019-01-03T03:59:17.258Z,0.00
2019-01-03T04:00:17.243Z,0.00
2019-01-03T04:01:17.228Z,0.00
2019-01-03T04:02:17.217Z,0.00
2019-01-03T04:03:17.213Z,0.00
2019-01-03T04:04:17.200Z,0.00
2019-01-03T04:05:17.192Z,0.00
2019-01-03T04:06:17.181Z,0.00
2019-01-03T04:07:17.174Z,0.00
2019-01-03T04:08:17.168Z,0.00
2019-01-03T04:09:17.156Z,0.00
2019-01-03T04:10:17.146Z,0.00
2019-01-03T04:11:17.138Z,0.00
2019-01-03T04:12:17.127Z,0.00
2019-01-03T04:13:17.120Z,0.00
2019-01-03T04:14:17.111Z,0.00
2019-01-03T04:15:17.102Z,0.00
2019-01-03T04:16:17.092Z,0.00
2019-01-03T04:17:17.086Z,0.00
2019-01-03T04:18:17.081Z,0.00
2019-01-03T04:19:17.066Z,0.00
2019-01-03T04:20:17.055Z,0.00
2019-01-03T04:21:17.049Z,0.00
2019-01-03T04:22:17.038Z,0.00
2019-01-03T04:23:17.030Z,0.00
2019-01-03T04:24:17.019Z,0.00
2019-01-03T04:25:17.014Z,0.00
2019-01-03T04:26:17.001Z,0.00
2019-01-03T04:27:16.995Z,0.00
2019-01-03T04:28:16.985Z,0.00
2019-01-03T04:29:16.979Z,0.00
2019-01-03T04:30:16.977Z,0.00
2019-01-03T04:31:16.958Z,0.00
2019-01-03T04:32:16.947Z,0.00
2019-01-03T04:33:16.944Z,0.00
2019-01-03T04:34:16.962Z,0.00
2019-01-03T04:35:16.922Z,0.00
2019-01-03T04:36:16.913Z,0.00
2019-01-03T04:37:16.904Z,0.00
2019-01-03T04:38:16.894Z,0.00
2019-01-03T04:39:16.888Z,0.00
2019-01-03T04:40:16.881Z,0.00
2019-01-03T04:41:16.870Z,0.00
2019-01-03T04:42:16.858Z,0.00
2019-01-03T04:43:16.851Z,0.00
2019-01-03T04:44:16.843Z,0.00
2019-01-03T04:45:16.833Z,0.00
2019-01-03T04:46:16.823Z,0.00
2019-01-03T04:47:16.816Z,0.00
2019-01-03T04:48:16.804Z,0.00
2019-01-03T04:49:16.797Z,0.00
2019-01-03T04:50:16.786Z,0.00
2019-01-03T04:51:16.783Z,0.00
2019-01-03T04:52:16.768Z,0.00
2019-01-03T04:53:16.764Z,0.00
2019-01-03T04:54:16.751Z,0.00
2019-01-03T04:55:16.746Z,0.00
2019-01-03T04:56:16.733Z,0.00
2019-01-03T04:57:16.732Z,0.00
2019-01-03T04:58:16.715Z,0.00
2019-01-03T04:59:16.708Z,0.00
2019-01-03T05:00:16.697Z,0.00
2019-01-03T05:01:16.689Z,0.00
2019-01-03T05:02:16.681Z,0.00
2019-01-03T05:03:16.671Z,0.00
2019-01-03T05:04:16.661Z,0.00
2019-01-03T05:05:16.664Z,0.00
2019-01-03T05:06:16.643Z,0.00
2019-01-03T05:07:16.634Z,0.00
2019-01-03T05:08:16.623Z,0.00
2019-01-03T05:09:16.617Z,0.00
2019-01-03T05:10:16.655Z,0.00
2019-01-03T05:11:16.598Z,0.00
2019-01-03T05:12:16.590Z,0.00
2019-01-03T05:13:16.582Z,0.00
2019-01-03T05:14:16.569Z,0.00
2019-01-03T05:15:16.562Z,0.00
2019-01-03T05:16:16.551Z,0.00
2019-01-03T05:17:16.545Z,0.00
2019-01-03T05:18:16.533Z,0.00
2019-01-03T05:19:16.526Z,0.00
2019-01-03T05:20:16.514Z,0.00
2019-01-03T05:21:16.508Z,0.00
2019-01-03T05:22:16.497Z,0.00
2019-01-03T05:23:16.490Z,0.00
2019-01-03T05:24:16.477Z,0.00
2019-01-03T05:25:16.471Z,0.00
2019-01-03T05:26:16.466Z,0.00
2019-01-03T05:27:16.470Z,0.00
2019-01-03T05:28:16.446Z,0.00
2019-01-03T05:29:16.434Z,0.00
2019-01-03T05:30:18.429Z,0.00
2019-01-03T05:31:16.416Z,0.00
2019-01-03T05:32:16.415Z,0.00
2019-01-03T05:33:16.414Z,0.00
2019-01-03T05:34:16.388Z,0.00
2019-01-03T05:35:16.379Z,0.00
2019-01-03T05:36:16.368Z,0.00
2019-01-03T05:37:16.373Z,0.00
2019-01-03T05:38:16.350Z,0.00
2019-01-03T05:39:16.347Z,0.00
2019-01-03T05:40:16.334Z,0.00
2019-01-03T05:41:16.324Z,0.00
2019-01-03T05:42:16.313Z,0.00
2019-01-03T05:43:16.306Z,0.00
2019-01-03T05:44:16.296Z,0.00
2019-01-03T05:45:16.288Z,0.00
2019-01-03T05:46:16.290Z,0.00
2019-01-03T05:47:16.270Z,0.00
2019-01-03T05:48:16.262Z,0.00
2019-01-03T05:49:16.259Z,0.00
2019-01-03T05:50:16.241Z,0.00
2019-01-03T05:51:16.233Z,0.00
2019-01-03T05:52:16.223Z,0.00
2019-01-03T05:53:16.213Z,0.00
2019-01-03T05:54:16.202Z,0.00
2019-01-03T05:55:16.194Z,0.00
2019-01-03T05:56:16.185Z,0.00
2019-01-03T05:57:16.177Z,0.00
2019-01-03T05:58:16.165Z,0.00
2019-01-03T05:59:16.163Z,0.00
2019-01-03T06:00:16.146Z,0.00
2019-01-03T06:01:16.140Z,0.00
2019-01-03T06:02:16.130Z,0.00
2019-01-03T06:03:16.121Z,0.00
2019-01-03T06:04:16.109Z,0.00
2019-01-03T06:05:16.355Z,0.00
2019-01-03T06:06:16.091Z,0.00
2019-01-03T06:07:16.083Z,0.00
2019-01-03T06:08:16.072Z,0.00
2019-01-03T06:09:16.065Z,0.00
2019-01-03T06:10:16.053Z,0.00
2019-01-03T06:11:16.046Z,0.00
2019-01-03T06:12:16.035Z,0.00
2019-01-03T06:13:16.028Z,0.00
2019-01-03T06:14:16.017Z,0.00
2019-01-03T06:15:16.010Z,0.00
2019-01-03T06:16:15.999Z,0.00
2019-01-03T06:17:15.990Z,0.00
2019-01-03T06:18:15.979Z,0.00
2019-01-03T06:19:15.974Z,0.00
2019-01-03T06:20:15.960Z,0.00
2019-01-03T06:21:15.953Z,0.00
2019-01-03T06:22:15.942Z,0.00
2019-01-03T06:23:15.935Z,0.00
2019-01-03T06:24:15.923Z,0.00
2019-01-03T06:25:15.917Z,0.00
2019-01-03T06:26:15.905Z,0.00
2019-01-03T06:27:15.897Z,0.00
2019-01-03T06:28:15.886Z,0.00
2019-01-03T06:29:15.879Z,0.00
2019-01-03T06:30:15.868Z,0.00
2019-01-03T06:31:15.864Z,0.00
2019-01-03T06:32:15.849Z,0.00
2019-01-03T06:33:15.842Z,0.00
2019-01-03T06:34:15.831Z,0.00
2019-01-03T06:35:15.823Z,0.00
2019-01-03T06:36:15.814Z,0.00
2019-01-03T06:37:15.811Z,0.00
2019-01-03T06:38:15.798Z,0.00
2019-01-03T06:39:15.787Z,0.00
2019-01-03T06:40:15.775Z,0.00
2019-01-03T06:41:15.769Z,0.00
2019-01-03T06:42:15.758Z,0.00
2019-01-03T06:43:15.750Z,0.00
2019-01-03T06:44:15.741Z,0.00
2019-01-03T06:45:15.732Z,0.00
2019-01-03T06:46:15.721Z,0.00
2019-01-03T06:47:15.713Z,0.00
2019-01-03T06:48:20.090Z,0.00
2019-01-03T06:49:15.696Z,0.00
2019-01-03T06:50:15.685Z,0.00
2019-01-03T06:51:15.689Z,0.00
2019-01-03T06:52:15.667Z,0.00
2019-01-03T06:53:15.660Z,0.00
2019-01-03T06:54:15.648Z,0.00
2019-01-03T06:55:15.641Z,0.00
2019-01-03T06:56:15.630Z,0.00
2019-01-03T06:57:15.624Z,0.00
2019-01-03T06:58:15.662Z,0.00
2019-01-03T06:59:15.605Z,0.00
2019-01-03T07:00:15.594Z,0.00
2019-01-03T07:01:15.587Z,0.00
2019-01-03T07:02:15.590Z,0.00
2019-01-03T07:03:15.580Z,0.00
2019-01-03T07:04:15.613Z,0.00
2019-01-03T07:05:15.551Z,0.00
2019-01-03T07:06:15.540Z,0.00
2019-01-03T07:07:15.532Z,4.00
2019-01-03T07:08:15.521Z,0.00
2019-01-03T07:09:15.525Z,4.00
2019-01-03T07:10:15.506Z,0.00
2019-01-03T07:11:15.496Z,4.00
2019-01-03T07:12:15.485Z,4.00
2019-01-03T07:13:15.478Z,4.00
2019-01-03T07:14:15.467Z,4.00
2019-01-03T07:15:15.460Z,4.00
2019-01-03T07:16:15.448Z,8.00
2019-01-03T07:17:15.442Z,8.00
2019-01-03T07:18:15.432Z,8.00
2019-01-03T07:19:15.422Z,8.00
2019-01-03T07:20:15.412Z,4.00
2019-01-03T07:21:15.405Z,8.00
2019-01-03T07:22:15.395Z,8.00
2019-01-03T07:23:15.387Z,8.00
2019-01-03T07:24:15.378Z,12.00
2019-01-03T07:25:15.370Z,12.00
2019-01-03T07:26:15.361Z,12.00
2019-01-03T07:27:15.353Z,16.00
2019-01-03T07:28:15.339Z,16.00
2019-01-03T07:29:15.332Z,20.00
2019-01-03T07:30:15.321Z,20.00
2019-01-03T07:31:15.314Z,20.00
2019-01-03T07:32:15.303Z,24.00
2019-01-03T07:33:15.296Z,24.00
2019-01-03T07:34:15.285Z,28.00
2019-01-03T07:35:15.281Z,28.00
2019-01-03T07:36:15.267Z,28.00
2019-01-03T07:37:15.260Z,32.00
2019-01-03T07:38:15.249Z,32.00
2019-01-03T07:39:15.241Z,36.00
2019-01-03T07:40:15.229Z,44.00
2019-01-03T07:41:15.223Z,48.00
2019-01-03T07:42:15.213Z,52.00
2019-01-03T07:43:15.204Z,60.00
2019-01-03T07:44:15.193Z,64.00
2019-01-03T07:45:15.189Z,72.00
2019-01-03T07:46:15.176Z,72.00
2019-01-03T07:47:15.169Z,68.00
2019-01-03T07:48:15.157Z,72.00
2019-01-03T07:49:15.150Z,60.00
2019-01-03T07:50:15.140Z,60.00
2019-01-03T07:51:15.139Z,64.00
2019-01-03T07:52:15.122Z,64.00
2019-01-03T07:53:15.114Z,68.00
2019-01-03T07:54:15.103Z,72.00
2019-01-03T07:55:15.096Z,80.00
2019-01-03T07:56:15.085Z,72.00
2019-01-03T07:57:15.079Z,64.00
2019-01-03T07:58:15.069Z,56.00
2019-01-03T07:59:15.081Z,56.00
2019-01-03T08:00:15.050Z,64.00
2019-01-03T08:01:15.043Z,76.00
2019-01-03T08:02:15.032Z,80.00
2019-01-03T08:03:15.024Z,100.00
2019-01-03T08:04:15.015Z,104.00
2019-01-03T08:05:15.008Z,108.00
2019-01-03T08:06:14.997Z,104.00
2019-01-03T08:07:14.989Z,100.00
2019-01-03T08:08:14.978Z,104.00
2019-01-03T08:09:14.972Z,116.00
2019-01-03T08:10:14.964Z,128.00
2019-01-03T08:11:14.953Z,144.00
2019-01-03T08:12:14.945Z,164.00
2019-01-03T08:13:14.934Z,196.00
2019-01-03T08:14:14.928Z,232.00
2019-01-03T08:15:14.917Z,180.00
2019-01-03T08:16:14.915Z,172.00
2019-01-03T08:17:14.899Z,192.00
2019-01-03T08:18:14.895Z,204.00
2019-01-03T08:19:14.883Z,208.00
2019-01-03T08:20:14.875Z,204.00
2019-01-03T08:21:14.864Z,220.00
2019-01-03T08:22:14.858Z,244.00
2019-01-03T08:23:14.846Z,252.00
2019-01-03T08:24:14.839Z,228.00
2019-01-03T08:25:14.828Z,200.00
2019-01-03T08:26:14.825Z,188.00
2019-01-03T08:27:14.810Z,184.00
2019-01-03T08:28:14.804Z,180.00
2019-01-03T08:29:14.793Z,180.00
2019-01-03T08:30:14.786Z,200.00
2019-01-03T08:31:14.775Z,212.00
2019-01-03T08:32:14.769Z,208.00
2019-01-03T08:33:14.758Z,224.00
2019-01-03T08:34:14.751Z,256.00
2019-01-03T08:35:14.739Z,288.00
2019-01-03T08:36:14.733Z,316.00
2019-01-03T08:37:14.722Z,340.00
2019-01-03T08:38:14.716Z,360.00
2019-01-03T08:39:14.704Z,372.00
2019-01-03T08:40:14.697Z,392.00
2019-01-03T08:41:14.687Z,432.00
2019-01-03T08:42:14.690Z,484.00
2019-01-03T08:43:14.668Z,568.00
2019-01-03T08:44:14.663Z,600.00
2019-01-03T08:45:14.652Z,644.00
2019-01-03T08:46:14.671Z,672.00
2019-01-03T08:47:14.633Z,648.00
2019-01-03T08:48:14.640Z,576.00
2019-01-03T08:49:14.615Z,540.00
2019-01-03T08:50:14.609Z,572.00
2019-01-03T08:51:14.598Z,588.00
2019-01-03T08:52:14.590Z,624.00
2019-01-03T08:53:14.581Z,636.00
2019-01-03T08:54:14.573Z,604.00
2019-01-03T08:55:14.562Z,660.00
2019-01-03T08:56:14.555Z,664.00
2019-01-03T08:57:14.544Z,576.00
2019-01-03T08:58:14.538Z,532.00
2019-01-03T08:59:14.528Z,484.00
2019-01-03T09:00:14.520Z,464.00
2019-01-03T09:01:14.510Z,456.00
2019-01-03T09:02:14.503Z,480.00
2019-01-03T09:03:14.493Z,544.00
2019-01-03T09:04:14.485Z,620.00
2019-01-03T09:05:14.475Z,696.00
2019-01-03T09:06:14.468Z,772.00
2019-01-03T09:07:14.456Z,812.00
2019-01-03T09:08:14.450Z,896.00
2019-01-03T09:09:14.440Z,876.00
2019-01-03T09:10:14.433Z,724.00
2019-01-03T09:11:14.422Z,668.00
2019-01-03T09:12:14.415Z,664.00
2019-01-03T09:13:14.405Z,776.00
2019-01-03T09:14:14.398Z,796.00
2019-01-03T09:15:14.386Z,820.00
2019-01-03T09:16:14.380Z,928.00
2019-01-03T09:17:14.369Z,1004.00
2019-01-03T09:18:14.363Z,984.00
2019-01-03T09:19:14.353Z,852.00
2019-01-03T09:20:14.346Z,752.00
2019-01-03T09:21:14.335Z,592.00
2019-01-03T09:22:14.329Z,452.00
2019-01-03T09:23:14.316Z,448.00
2019-01-03T09:24:14.310Z,628.00
2019-01-03T09:25:14.299Z,812.00
2019-01-03T09:26:14.293Z,900.00
2019-01-03T09:27:14.282Z,972.00
2019-01-03T09:28:14.275Z,1060.00
2019-01-03T09:29:14.264Z,1144.00
2019-01-03T09:30:14.258Z,1156.00
2019-01-03T09:31:14.246Z,1384.00
2019-01-03T09:32:14.240Z,1624.00
2019-01-03T09:33:14.230Z,1896.00
2019-01-03T09:34:14.223Z,2352.00
2019-01-03T09:35:14.216Z,2624.00
2019-01-03T09:36:14.207Z,2248.00
2019-01-03T09:37:14.195Z,2296.00
2019-01-03T09:38:14.188Z,2032.00
2019-01-03T09:39:14.177Z,1812.00
2019-01-03T09:40:14.421Z,1744.00
2019-01-03T09:41:14.159Z,1496.00
2019-01-03T09:42:14.154Z,1504.00
2019-01-03T09:43:14.142Z,1524.00
2019-01-03T09:44:14.135Z,1504.00
2019-01-03T09:45:14.124Z,1828.00
2019-01-03T09:46:14.124Z,2248.00
2019-01-03T09:47:14.107Z,2184.00
2019-01-03T09:48:14.099Z,2080.00
2019-01-03T09:49:14.090Z,2144.00
2019-01-03T09:50:14.085Z,2132.00
2019-01-03T09:51:14.072Z,1912.00
2019-01-03T09:52:14.065Z,1544.00
2019-01-03T09:53:14.055Z,1704.00
2019-01-03T09:54:14.049Z,1696.00
2019-01-03T09:55:14.038Z,1888.00
2019-01-03T09:56:14.031Z,1508.00
2019-01-03T09:57:14.021Z,1420.00
2019-01-03T09:58:14.070Z,1144.00
2019-01-03T09:59:14.003Z,1052.00
2019-01-03T10:00:13.999Z,952.00
2019-01-03T10:01:14.032Z,880.00
2019-01-03T10:02:13.981Z,944.00
2019-01-03T10:03:13.970Z,980.00
2019-01-03T10:04:13.968Z,1060.00
2019-01-03T10:05:13.954Z,1084.00
2019-01-03T10:06:13.948Z,1032.00
2019-01-03T10:07:13.937Z,1204.00
2019-01-03T10:08:19.579Z,1284.00
2019-01-03T10:09:13.922Z,1256.00
2019-01-03T10:10:13.922Z,1196.00
2019-01-03T10:11:13.904Z,1100.00
2019-01-03T10:12:13.899Z,1124.00
2019-01-03T10:13:13.889Z,1248.00
2019-01-03T10:14:13.882Z,1320.00
2019-01-03T10:15:13.872Z,1152.00
2019-01-03T10:16:13.866Z,1072.00
2019-01-03T10:17:13.855Z,1128.00
2019-01-03T10:18:13.849Z,1140.00
2019-01-03T10:19:13.837Z,1064.00
2019-01-03T10:20:13.832Z,932.00
2019-01-03T10:21:13.822Z,872.00
2019-01-03T10:22:13.817Z,884.00
2019-01-03T10:23:13.805Z,912.00
2019-01-03T10:24:13.805Z,932.00
2019-01-03T10:25:13.804Z,1088.00
2019-01-03T10:26:13.784Z,1108.00
2019-01-03T10:27:13.772Z,1084.00
2019-01-03T10:28:13.767Z,1212.00
2019-01-03T10:29:13.757Z,1356.00
2019-01-03T10:30:13.753Z,1420.00
2019-01-03T10:31:13.749Z,1400.00
2019-01-03T10:32:13.754Z,1360.00
2019-01-03T10:33:13.725Z,1304.00
2019-01-03T10:34:13.721Z,1232.00
2019-01-03T10:35:13.708Z,1192.00
2019-01-03T10:36:13.702Z,1140.00
2019-01-03T10:37:13.693Z,1104.00
2019-01-03T10:38:13.687Z,1116.00
2019-01-03T10:39:13.677Z,1236.00
2019-01-03T10:40:13.673Z,1300.00
2019-01-03T10:41:13.911Z,1316.00
2019-01-03T10:42:13.655Z,1156.00
2019-01-03T10:43:13.644Z,1196.00
2019-01-03T10:44:13.638Z,1308.00
2019-01-03T10:45:13.628Z,1468.00
2019-01-03T10:46:13.629Z,1536.00
2019-01-03T10:47:13.612Z,1504.00
2019-01-03T10:48:13.606Z,1348.00
2019-01-03T10:49:13.595Z,1344.00
2019-01-03T10:50:13.592Z,1316.00
2019-01-03T10:51:13.579Z,1304.00
2019-01-03T10:52:13.573Z,1380.00
2019-01-03T10:53:13.568Z,1404.00
2019-01-03T10:54:13.557Z,1284.00
2019-01-03T10:55:13.546Z,1352.00
2019-01-03T10:56:13.540Z,1532.00
2019-01-03T10:57:13.531Z,1756.00
2019-01-03T10:58:13.525Z,1760.00
2019-01-03T10:59:13.513Z,1724.00
2019-01-03T11:00:13.508Z,1596.00
2019-01-03T11:01:13.501Z,1460.00
2019-01-03T11:02:13.492Z,1480.00
2019-01-03T11:03:13.482Z,1408.00
2019-01-03T11:04:13.479Z,1136.00
2019-01-03T11:05:13.466Z,952.00
2019-01-03T11:06:13.461Z,996.00
2019-01-03T11:07:13.455Z,820.00
2019-01-03T11:08:13.446Z,656.00
2019-01-03T11:09:13.434Z,648.00
2019-01-03T11:10:13.430Z,676.00
2019-01-03T11:11:13.668Z,916.00
2019-01-03T11:12:13.413Z,1100.00
2019-01-03T11:13:13.403Z,1320.00
2019-01-03T11:14:13.397Z,1620.00
2019-01-03T11:15:13.386Z,1812.00
2019-01-03T11:16:13.381Z,1968.00
2019-01-03T11:17:13.371Z,1916.00
2019-01-03T11:18:13.364Z,1892.00
2019-01-03T11:19:13.353Z,1828.00
2019-01-03T11:20:13.348Z,1828.00
2019-01-03T11:21:13.337Z,1812.00
2019-01-03T11:22:13.332Z,1764.00
2019-01-03T11:23:13.323Z,1856.00
2019-01-03T11:24:13.316Z,1876.00
2019-01-03T11:25:13.305Z,1900.00
2019-01-03T11:26:13.299Z,1928.00
2019-01-03T11:27:13.289Z,1888.00
2019-01-03T11:28:13.284Z,1696.00
2019-01-03T11:29:13.273Z,1664.00
2019-01-03T11:30:13.268Z,1572.00
2019-01-03T11:31:13.256Z,1504.00
2019-01-03T11:32:13.251Z,1516.00
2019-01-03T11:33:13.243Z,1540.00
2019-01-03T11:34:13.261Z,1632.00
2019-01-03T11:35:13.224Z,1604.00
2019-01-03T11:36:13.220Z,1664.00
2019-01-03T11:37:13.213Z,1568.00
2019-01-03T11:38:13.204Z,1508.00
2019-01-03T11:39:13.200Z,1432.00
2019-01-03T11:40:13.188Z,1476.00
2019-01-03T11:41:13.428Z,1432.00
2019-01-03T11:42:13.172Z,1360.00
2019-01-03T11:43:13.162Z,1440.00
2019-01-03T11:44:13.157Z,1760.00
2019-01-03T11:45:13.146Z,1976.00
2019-01-03T11:46:13.142Z,2036.00
2019-01-03T11:47:13.130Z,2200.00
2019-01-03T11:48:13.125Z,2140.00
2019-01-03T11:49:13.116Z,2188.00
2019-01-03T11:50:13.110Z,3372.00
2019-01-03T11:51:13.099Z,3812.00
2019-01-03T11:52:13.094Z,1800.00
2019-01-03T11:53:13.084Z,1420.00
2019-01-03T11:54:13.079Z,1352.00
2019-01-03T11:55:13.068Z,1296.00
2019-01-03T11:56:13.064Z,1188.00
2019-01-03T11:57:13.054Z,1124.00
2019-01-03T11:58:13.049Z,1068.00
2019-01-03T11:59:13.037Z,1060.00
2019-01-03T12:00:13.032Z,1036.00
2019-01-03T12:01:13.023Z,988.00
2019-01-03T12:02:13.017Z,960.00
2019-01-03T12:03:13.007Z,1104.00
2019-01-03T12:04:13.001Z,1152.00
2019-01-03T12:05:12.993Z,1148.00
2019-01-03T12:06:12.986Z,976.00
2019-01-03T12:07:12.976Z,916.00
2019-01-03T12:08:12.971Z,884.00
2019-01-03T12:09:12.961Z,948.00
2019-01-03T12:10:12.955Z,972.00
2019-01-03T12:11:12.945Z,1108.00
2019-01-03T12:12:12.940Z,1144.00
2019-01-03T12:13:12.929Z,1084.00
2019-01-03T12:14:12.929Z,956.00
2019-01-03T12:15:12.929Z,908.00
2019-01-03T12:16:12.909Z,908.00
2019-01-03T12:17:12.899Z,952.00
2019-01-03T12:18:12.894Z,1096.00
2019-01-03T12:19:12.884Z,1008.00
2019-01-03T12:20:12.877Z,1128.00
2019-01-03T12:21:12.871Z,1316.00
2019-01-03T12:22:12.875Z,1464.00
2019-01-03T12:23:12.851Z,1600.00
2019-01-03T12:24:12.846Z,1480.00
2019-01-03T12:25:12.838Z,1352.00
2019-01-03T12:26:12.829Z,1272.00
2019-01-03T12:27:12.822Z,1276.00
2019-01-03T12:28:12.813Z,1248.00
2019-01-03T12:29:12.808Z,1196.00
2019-01-03T12:30:12.798Z,1268.00
2019-01-03T12:31:12.792Z,1300.00
2019-01-03T12:32:12.782Z,1244.00
2019-01-03T12:33:12.777Z,1140.00
2019-01-03T12:34:12.918Z,1076.00
2019-01-03T12:35:12.763Z,1012.00
2019-01-03T12:36:12.752Z,1012.00
2019-01-03T12:37:12.748Z,1088.00
2019-01-03T12:38:12.737Z,1232.00
2019-01-03T12:39:12.733Z,1220.00
2019-01-03T12:40:12.721Z,1212.00
2019-01-03T12:41:12.716Z,1256.00
2019-01-03T12:42:12.709Z,1300.00
2019-01-03T12:43:12.701Z,1436.00
2019-01-03T12:44:12.691Z,1612.00
2019-01-03T12:45:12.686Z,1592.00
2019-01-03T12:46:12.677Z,1592.00
2019-01-03T12:47:12.673Z,1728.00
2019-01-03T12:48:12.663Z,1772.00
2019-01-03T12:49:12.656Z,1740.00
2019-01-03T12:50:12.648Z,1760.00
2019-01-03T12:51:12.641Z,1588.00